PHSCH EHSE-EHSE
Flight info
| Callsign | PHSCH |
|---|---|
| Flight time | 0h 18m |
| Altitude | 3000 |
| Route | VFR |
| Aircraft | PC12/L-SDFGRWY/S |
Departure
| Time | 2026-04-18 20:28 |
|---|---|
| Airport | Breda International Airport (EHSE) |
Arrival
| Time | 2026-04-18 20:46 |
|---|---|
| Airport | Breda International Airport (EHSE) |
| Time | Latitude | Longitude | Altitude | Speed | Heading |
|---|---|---|---|---|---|
| 2026-04-18 20:20 | 51.55523 | 4.54991 | 36 ft | 0 kts | 37° |
| 2026-04-18 20:24 | 51.55523 | 4.54992 | 37 ft | 0 kts | 37° |
| 2026-04-18 20:24 | 51.55523 | 4.54991 | 37 ft | 0 kts | 29° |
| 2026-04-18 20:24 | 51.55514 | 4.54991 | 37 ft | 3 kts | 353° |
| 2026-04-18 20:25 | 51.55488 | 4.54985 | 37 ft | 3 kts | 65° |
| 2026-04-18 20:25 | 51.55480 | 4.55004 | 36 ft | 9 kts | 141° |
| 2026-04-18 20:25 | 51.55453 | 4.54971 | 37 ft | 7 kts | 249° |
| 2026-04-18 20:25 | 51.55437 | 4.54912 | 37 ft | 10 kts | 245° |
| 2026-04-18 20:26 | 51.55413 | 4.54826 | 37 ft | 10 kts | 247° |
| 2026-04-18 20:26 | 51.55405 | 4.54795 | 38 ft | 0 kts | 240° |
| 2026-04-18 20:27 | 51.55399 | 4.54783 | 37 ft | 2 kts | 212° |
| 2026-04-18 20:27 | 51.55361 | 4.54813 | 36 ft | 7 kts | 106° |
| 2026-04-18 20:27 | 51.55362 | 4.54833 | 36 ft | 0 kts | 69° |
| 2026-04-18 20:27 | 51.55420 | 4.55044 | 36 ft | 56 kts | 66° |
| 2026-04-18 20:28 | 51.55657 | 4.55899 | 231 ft | 91 kts | 62° |
| 2026-04-18 20:28 | 51.55997 | 4.56993 | 490 ft | 128 kts | 60° |
| 2026-04-18 20:28 | 51.56401 | 4.58291 | 1098 ft | 141 kts | 59° |
| 2026-04-18 20:28 | 51.56907 | 4.59773 | 1728 ft | 160 kts | 56° |
| 2026-04-18 20:29 | 51.57526 | 4.61353 | 2375 ft | 173 kts | 54° |
| 2026-04-18 20:29 | 51.58209 | 4.62943 | 3114 ft | 175 kts | 43° |
| 2026-04-18 20:29 | 51.59065 | 4.64510 | 3237 ft | 209 kts | 62° |
| 2026-04-18 20:29 | 51.59096 | 4.66927 | 3124 ft | 236 kts | 107° |
| 2026-04-18 20:30 | 51.58394 | 4.69347 | 3015 ft | 240 kts | 109° |
| 2026-04-18 20:30 | 51.57748 | 4.71881 | 2903 ft | 242 kts | 110° |
| 2026-04-18 20:30 | 51.57103 | 4.74319 | 2851 ft | 240 kts | 110° |
| 2026-04-18 20:30 | 51.56446 | 4.76782 | 2852 ft | 239 kts | 110° |
| 2026-04-18 20:31 | 51.55789 | 4.79237 | 2859 ft | 238 kts | 110° |
| 2026-04-18 20:31 | 51.55161 | 4.81674 | 2970 ft | 233 kts | 104° |
| 2026-04-18 20:31 | 51.55242 | 4.84178 | 3065 ft | 226 kts | 63° |
| 2026-04-18 20:31 | 51.56239 | 4.86048 | 3189 ft | 221 kts | 37° |
| 2026-04-18 20:32 | 51.57617 | 4.87029 | 3199 ft | 221 kts | 3° |
| 2026-04-18 20:32 | 51.59104 | 4.86521 | 3206 ft | 221 kts | 336° |
| 2026-04-18 20:32 | 51.60173 | 4.84783 | 3201 ft | 225 kts | 298° |
| 2026-04-18 20:32 | 51.60683 | 4.82404 | 3215 ft | 226 kts | 288° |
| 2026-04-18 20:33 | 51.61103 | 4.79956 | 3216 ft | 228 kts | 288° |
| 2026-04-18 20:33 | 51.61305 | 4.77436 | 3203 ft | 233 kts | 265° |
| 2026-04-18 20:33 | 51.60825 | 4.74937 | 3198 ft | 236 kts | 246° |
| 2026-04-18 20:33 | 51.59750 | 4.72907 | 3204 ft | 240 kts | 225° |
| 2026-04-18 20:34 | 51.58502 | 4.71118 | 3210 ft | 241 kts | 224° |
| 2026-04-18 20:34 | 51.57228 | 4.69344 | 3210 ft | 241 kts | 221° |
| 2026-04-18 20:34 | 51.55673 | 4.68376 | 3200 ft | 246 kts | 183° |
| 2026-04-18 20:34 | 51.54066 | 4.69158 | 3201 ft | 246 kts | 142° |
| 2026-04-18 20:35 | 51.53113 | 4.71354 | 3198 ft | 240 kts | 102° |
| 2026-04-18 20:35 | 51.53226 | 4.73931 | 3196 ft | 232 kts | 63° |
| 2026-04-18 20:35 | 51.54156 | 4.75987 | 3212 ft | 226 kts | 45° |
| 2026-04-18 20:35 | 51.55228 | 4.77830 | 3221 ft | 226 kts | 44° |
| 2026-04-18 20:36 | 51.56313 | 4.79656 | 3220 ft | 225 kts | 43° |
| 2026-04-18 20:36 | 51.57404 | 4.81484 | 3218 ft | 227 kts | 43° |
| 2026-04-18 20:36 | 51.58680 | 4.82863 | 3197 ft | 223 kts | 13° |
| 2026-04-18 20:36 | 51.60217 | 4.83023 | 3208 ft | 222 kts | 358° |
| 2026-04-18 20:37 | 51.61688 | 4.82436 | 3203 ft | 221 kts | 331° |
| 2026-04-18 20:37 | 51.62944 | 4.80989 | 3204 ft | 222 kts | 323° |
| 2026-04-18 20:37 | 51.64129 | 4.79454 | 3205 ft | 222 kts | 322° |
| 2026-04-18 20:37 | 51.65324 | 4.77891 | 3213 ft | 221 kts | 322° |
| 2026-04-18 20:38 | 51.66531 | 4.76306 | 3214 ft | 221 kts | 322° |
| 2026-04-18 20:38 | 51.67587 | 4.74558 | 3200 ft | 225 kts | 301° |
| 2026-04-18 20:38 | 51.67786 | 4.72072 | 3200 ft | 233 kts | 260° |
| 2026-04-18 20:38 | 51.67122 | 4.69659 | 3210 ft | 237 kts | 244° |
| 2026-04-18 20:39 | 51.66295 | 4.67351 | 3215 ft | 238 kts | 243° |
| 2026-04-18 20:39 | 51.65455 | 4.65052 | 3214 ft | 238 kts | 242° |
| 2026-04-18 20:39 | 51.64615 | 4.62758 | 3219 ft | 238 kts | 242° |
| 2026-04-18 20:39 | 51.63764 | 4.60443 | 3009 ft | 231 kts | 242° |
| 2026-04-18 20:40 | 51.63015 | 4.58446 | 2745 ft | 194 kts | 242° |
| 2026-04-18 20:40 | 51.62320 | 4.56601 | 2454 ft | 192 kts | 242° |
| 2026-04-18 20:40 | 51.61637 | 4.54771 | 2169 ft | 190 kts | 242° |
| 2026-04-18 20:40 | 51.60957 | 4.52953 | 1912 ft | 190 kts | 242° |
| 2026-04-18 20:41 | 51.60106 | 4.51353 | 1626 ft | 190 kts | 220° |
| 2026-04-18 20:41 | 51.58957 | 4.50499 | 1344 ft | 175 kts | 186° |
| 2026-04-18 20:41 | 51.57828 | 4.50406 | 1197 ft | 144 kts | 182° |
| 2026-04-18 20:41 | 51.56943 | 4.50370 | 1124 ft | 133 kts | 179° |
| 2026-04-18 20:42 | 51.55965 | 4.50577 | 1013 ft | 143 kts | 163° |
| 2026-04-18 20:42 | 51.55100 | 4.51194 | 639 ft | 129 kts | 140° |
| 2026-04-18 20:42 | 51.54809 | 4.52293 | 471 ft | 105 kts | 88° |
| 2026-04-18 20:42 | 51.54975 | 4.53409 | 312 ft | 106 kts | 64° |
| 2026-04-18 20:43 | 51.55272 | 4.54498 | 115 ft | 105 kts | 62° |
| 2026-04-18 20:43 | 51.55542 | 4.55479 | 37 ft | 87 kts | 63° |
| 2026-04-18 20:43 | 51.55806 | 4.56435 | 265 ft | 108 kts | 64° |
| 2026-04-18 20:43 | 51.56211 | 4.57679 | 572 ft | 131 kts | 60° |
| 2026-04-18 20:44 | 51.55824 | 4.58578 | 1120 ft | 134 kts | 186° |
| 2026-04-18 20:44 | 51.55081 | 4.57514 | 1118 ft | 158 kts | 238° |
| 2026-04-18 20:44 | 51.54447 | 4.56182 | 1147 ft | 141 kts | 234° |
| 2026-04-18 20:44 | 51.53834 | 4.55042 | 1008 ft | 126 kts | 232° |
| 2026-04-18 20:45 | 51.53430 | 4.53883 | 875 ft | 114 kts | 255° |
| 2026-04-18 20:45 | 51.53419 | 4.53103 | 907 ft | 96 kts | 288° |
| 2026-04-18 20:45 | 51.53899 | 4.52268 | 586 ft | 110 kts | 324° |
| 2026-04-18 20:45 | 51.54537 | 4.52004 | 356 ft | 95 kts | 31° |
| 2026-04-18 20:46 | 51.54869 | 4.52913 | 266 ft | 97 kts | 69° |
| 2026-04-18 20:46 | 51.55125 | 4.53922 | 161 ft | 97 kts | 60° |
| 2026-04-18 20:46 | 51.55382 | 4.54898 | 44 ft | 93 kts | 64° |
| 2026-04-18 20:46 | 51.55596 | 4.55679 | 30 ft | 43 kts | 65° |
| 2026-04-18 20:47 | 51.55671 | 4.55874 | 30 ft | 13 kts | 341° |
| 2026-04-18 20:47 | 51.55677 | 4.55791 | 30 ft | 7 kts | 244° |
| 2026-04-18 20:47 | 51.55644 | 4.55671 | 31 ft | 14 kts | 246° |
| 2026-04-18 20:47 | 51.55602 | 4.55522 | 30 ft | 13 kts | 245° |
| 2026-04-18 20:48 | 51.55574 | 4.55414 | 31 ft | 11 kts | 245° |
| 2026-04-18 20:48 | 51.55526 | 4.55232 | 32 ft | 16 kts | 240° |
| 2026-04-18 20:48 | 51.55484 | 4.55089 | 34 ft | 13 kts | 249° |
| 2026-04-18 20:48 | 51.55448 | 4.54958 | 37 ft | 10 kts | 245° |
| 2026-04-18 20:49 | 51.55428 | 4.54874 | 37 ft | 3 kts | 292° |
| 2026-04-18 20:49 | 51.55441 | 4.54859 | 38 ft | 0 kts | 343° |